Terminal Aerodrome Forecast
Issued by NWS

Home | Current Version | Previous Version | Text Only | Print | Product List | Glossary On
Versions: 1 2 3 4 5 6 7 8 9 10 11 12 13 14 15 16 17
000
FTUS45 KBOU 191720
TAFAPA
TAF
KAPA 191720Z 1918/2018 VRB05KT P6SM FEW120
     FM192000 04005KT P6SM FEW090 SCT120
     FM200000 14008KT P6SM SCT090 BKN200
     FM200300 18010KT P6SM SCT090 BKN200
     FM200600 20010KT P6SM FEW110 SCT200
     FM201400 24007KT P6SM FEW110 SCT200=

USA.gov is the U.S. government's official web portal to all federal, state and local government web resources and services.